createdAt,value
2017-03-31T00:00:56.407Z,10.73
2017-03-31T00:01:55.407Z,11.03
2017-03-31T00:02:54.376Z,13.23
2017-03-31T00:03:53.380Z,11.50
2017-03-31T00:04:52.354Z,10.45
2017-03-31T00:05:51.476Z,10.38
2017-03-31T00:06:50.099Z,10.98
2017-03-31T00:07:48.688Z,10.75
2017-03-31T00:08:47.691Z,11.12
2017-03-31T00:09:46.271Z,11.65
2017-03-31T00:10:45.232Z,10.48
2017-03-31T00:11:44.331Z,11.68
2017-03-31T00:12:43.354Z,11.65
2017-03-31T00:13:42.301Z,11.28
2017-03-31T00:14:41.332Z,11.52
2017-03-31T00:15:40.365Z,11.02
2017-03-31T00:16:39.369Z,11.30
2017-03-31T00:17:38.411Z,10.50
2017-03-31T00:18:37.744Z,11.35
2017-03-31T00:19:36.400Z,11.53
2017-03-31T00:20:35.340Z,10.88
2017-03-31T00:21:34.344Z,11.00
2017-03-31T00:22:33.349Z,10.15
2017-03-31T00:23:32.396Z,11.17
2017-03-31T00:24:31.393Z,12.73
2017-03-31T00:25:30.433Z,11.52
2017-03-31T00:26:29.423Z,11.28
2017-03-31T00:27:28.747Z,12.12
2017-03-31T00:28:27.768Z,11.42
2017-03-31T00:29:26.773Z,11.25
2017-03-31T00:30:25.837Z,11.97
2017-03-31T00:31:24.764Z,10.85
2017-03-31T00:32:23.759Z,10.68
2017-03-31T00:33:22.841Z,11.78
2017-03-31T00:34:21.867Z,10.02
2017-03-31T00:35:20.856Z,10.43
2017-03-31T00:36:19.851Z,11.35
2017-03-31T00:37:18.848Z,10.60
2017-03-31T00:38:17.805Z,11.15
2017-03-31T00:39:16.856Z,9.92
2017-03-31T00:40:16.640Z,10.45
2017-03-31T00:41:15.624Z,10.67
2017-03-31T00:42:14.638Z,9.63
2017-03-31T00:43:13.639Z,10.45
2017-03-31T00:44:12.269Z,11.20
2017-03-31T00:45:11.250Z,11.50
2017-03-31T00:46:10.240Z,9.53
2017-03-31T00:47:09.289Z,11.52
2017-03-31T00:48:08.893Z,9.93
2017-03-31T00:49:07.834Z,10.07
2017-03-31T00:50:06.512Z,11.35
2017-03-31T00:51:05.534Z,10.47
2017-03-31T00:52:04.591Z,9.73
2017-03-31T00:53:03.575Z,10.40
2017-03-31T00:54:02.184Z,10.18
2017-03-31T00:55:01.731Z,10.22
2017-03-31T00:56:00.727Z,9.53
2017-03-31T00:56:59.702Z,10.02
2017-03-31T00:57:58.738Z,10.03
2017-03-31T00:58:57.838Z,10.65
2017-03-31T00:59:56.799Z,10.93
2017-03-31T01:00:55.852Z,10.02
2017-03-31T01:01:54.831Z,11.45
2017-03-31T01:02:53.435Z,10.90
2017-03-31T01:03:51.972Z,10.33
2017-03-31T01:04:50.684Z,10.17
2017-03-31T01:05:49.720Z,11.17
2017-03-31T01:06:48.728Z,11.15
2017-03-31T01:07:47.663Z,10.08
2017-03-31T01:08:46.593Z,10.78
2017-03-31T01:09:45.232Z,10.65
2017-03-31T01:10:44.202Z,11.57
2017-03-31T01:11:43.292Z,10.95
2017-03-31T01:12:42.284Z,10.40
2017-03-31T01:13:41.254Z,10.13
2017-03-31T01:14:40.298Z,12.15
2017-03-31T01:15:39.285Z,11.45
2017-03-31T01:16:37.934Z,10.87
2017-03-31T01:17:36.936Z,11.35
2017-03-31T01:18:35.999Z,11.40
2017-03-31T01:19:34.974Z,12.05
2017-03-31T01:20:34.024Z,11.55
2017-03-31T01:21:33.467Z,12.57
2017-03-31T01:22:32.547Z,11.45
2017-03-31T01:23:31.582Z,13.25
2017-03-31T01:24:30.175Z,11.65
2017-03-31T01:25:29.172Z,11.27
2017-03-31T01:26:28.165Z,11.83
2017-03-31T01:27:27.187Z,12.55
2017-03-31T01:28:25.803Z,10.85
2017-03-31T01:29:24.840Z,10.97
2017-03-31T01:30:23.808Z,12.47
2017-03-31T01:31:22.801Z,11.63
2017-03-31T01:32:21.942Z,13.22
2017-03-31T01:33:20.936Z,12.63
2017-03-31T01:34:19.937Z,12.57
2017-03-31T01:35:18.556Z,13.03
2017-03-31T01:36:17.539Z,13.27
2017-03-31T01:37:16.534Z,13.33
2017-03-31T01:38:15.891Z,14.25
2017-03-31T01:39:14.902Z,12.15
2017-03-31T01:40:13.874Z,14.02
2017-03-31T01:41:12.595Z,13.60
2017-03-31T01:42:11.651Z,14.60
2017-03-31T01:43:10.626Z,14.60
2017-03-31T01:44:09.607Z,14.57
2017-03-31T01:45:09.003Z,14.57
2017-03-31T01:46:08.324Z,13.78
2017-03-31T01:47:07.404Z,15.07
2017-03-31T01:48:06.421Z,15.03
2017-03-31T01:49:05.391Z,15.73
2017-03-31T01:50:03.992Z,14.98
2017-03-31T01:51:03.000Z,15.05
2017-03-31T01:52:02.033Z,13.88
2017-03-31T01:53:01.413Z,13.25
2017-03-31T01:54:00.375Z,15.23
2017-03-31T01:54:59.315Z,15.25
2017-03-31T01:55:58.699Z,15.15
2017-03-31T01:56:57.679Z,16.67
2017-03-31T01:57:56.648Z,15.22
2017-03-31T01:58:55.674Z,15.98
2017-03-31T01:59:54.700Z,16.00
2017-03-31T02:00:53.823Z,16.75
2017-03-31T02:01:52.787Z,16.82
2017-03-31T02:02:51.788Z,16.85
2017-03-31T02:03:50.469Z,16.18
2017-03-31T02:04:49.491Z,16.27
2017-03-31T02:05:48.892Z,15.92
2017-03-31T02:06:48.256Z,15.58
2017-03-31T02:07:47.307Z,16.12
2017-03-31T02:08:46.296Z,16.00
2017-03-31T02:09:45.296Z,15.50
2017-03-31T02:10:43.960Z,17.13
2017-03-31T02:11:43.035Z,16.75
2017-03-31T02:12:42.056Z,16.50
2017-03-31T02:13:40.669Z,15.27
2017-03-31T02:14:39.643Z,16.02
2017-03-31T02:15:39.049Z,15.93
2017-03-31T02:16:37.659Z,15.35
2017-03-31T02:17:36.226Z,16.42
2017-03-31T02:18:35.223Z,14.88
2017-03-31T02:19:34.153Z,15.85
2017-03-31T02:20:33.112Z,14.75
2017-03-31T02:21:32.101Z,15.73
2017-03-31T02:22:31.447Z,14.98
2017-03-31T02:23:30.444Z,14.78
2017-03-31T02:24:29.379Z,14.88
2017-03-31T02:25:28.379Z,14.07
2017-03-31T02:26:26.985Z,16.22
2017-03-31T02:27:25.939Z,17.65
2017-03-31T02:28:24.967Z,20.32
2017-03-31T02:29:23.959Z,16.57
2017-03-31T02:30:22.576Z,18.98
2017-03-31T02:31:21.581Z,14.98
2017-03-31T02:32:20.580Z,16.50
2017-03-31T02:33:19.130Z,18.12
2017-03-31T02:34:18.224Z,16.27
2017-03-31T02:35:17.976Z,16.45
2017-03-31T02:36:16.938Z,13.35
2017-03-31T02:37:15.643Z,15.73
2017-03-31T02:38:14.987Z,14.90
2017-03-31T02:39:13.917Z,13.38
2017-03-31T02:40:12.995Z,14.53
2017-03-31T02:41:11.923Z,13.70
2017-03-31T02:42:10.555Z,14.32
2017-03-31T02:43:09.579Z,12.87
2017-03-31T02:44:08.591Z,12.92
2017-03-31T02:45:07.549Z,13.63
2017-03-31T02:46:06.591Z,11.90
2017-03-31T02:47:05.667Z,12.15
2017-03-31T02:48:04.701Z,11.12
2017-03-31T02:49:03.772Z,11.77
2017-03-31T02:50:02.796Z,12.33
2017-03-31T02:51:01.730Z,11.47
2017-03-31T02:52:00.755Z,11.98
2017-03-31T02:52:59.755Z,10.82
2017-03-31T02:53:58.732Z,12.08
2017-03-31T02:54:57.649Z,11.83
2017-03-31T02:55:56.710Z,12.27
2017-03-31T02:56:55.732Z,12.43
2017-03-31T02:57:54.319Z,14.22
2017-03-31T02:58:54.035Z,13.18
2017-03-31T02:59:52.995Z,12.10
2017-03-31T03:00:52.007Z,12.28
2017-03-31T03:01:51.015Z,13.18
2017-03-31T03:02:50.036Z,12.87
2017-03-31T03:03:49.025Z,13.08
2017-03-31T03:04:48.059Z,12.75
2017-03-31T03:05:47.027Z,13.93
2017-03-31T03:06:46.048Z,12.50
2017-03-31T03:07:45.022Z,12.88
2017-03-31T03:08:44.003Z,12.00
2017-03-31T03:09:42.972Z,14.05
2017-03-31T03:10:41.976Z,13.10
2017-03-31T03:11:40.931Z,13.72
2017-03-31T03:12:39.935Z,14.82
2017-03-31T03:13:38.881Z,14.05
2017-03-31T03:14:37.924Z,13.78
2017-03-31T03:15:37.311Z,13.55
2017-03-31T03:16:36.335Z,13.48
2017-03-31T03:17:34.976Z,16.47
2017-03-31T03:18:33.972Z,13.90
2017-03-31T03:19:32.964Z,14.38
2017-03-31T03:20:31.941Z,15.20
2017-03-31T03:21:30.976Z,16.23
2017-03-31T03:22:29.981Z,15.08
2017-03-31T03:23:28.996Z,14.60
2017-03-31T03:24:27.989Z,16.28
2017-03-31T03:25:26.992Z,15.30
2017-03-31T03:26:25.943Z,14.80
2017-03-31T03:27:24.571Z,16.00
2017-03-31T03:28:23.231Z,16.18
2017-03-31T03:29:22.239Z,15.33
2017-03-31T03:30:21.308Z,17.13
2017-03-31T03:31:20.319Z,16.88
2017-03-31T03:32:19.303Z,16.22
2017-03-31T03:33:18.302Z,15.82
2017-03-31T03:34:16.840Z,17.70
2017-03-31T03:35:15.848Z,17.25
2017-03-31T03:36:14.856Z,16.00
2017-03-31T03:37:14.158Z,15.92
2017-03-31T03:38:13.192Z,16.53
2017-03-31T03:39:12.164Z,16.38
2017-03-31T03:40:11.135Z,16.92
2017-03-31T03:41:10.140Z,17.42
2017-03-31T03:42:09.128Z,17.17
2017-03-31T03:43:08.117Z,18.33
2017-03-31T03:44:07.175Z,17.50
2017-03-31T03:45:06.519Z,18.48
2017-03-31T03:46:05.116Z,18.70
2017-03-31T03:47:04.151Z,17.92
2017-03-31T03:48:03.124Z,16.50
2017-03-31T03:49:02.140Z,17.50
2017-03-31T03:50:01.192Z,17.70
2017-03-31T03:51:00.195Z,20.12
2017-03-31T03:51:58.775Z,16.87
2017-03-31T03:52:57.776Z,17.47
2017-03-31T03:53:56.847Z,18.20
2017-03-31T03:54:55.840Z,19.12
2017-03-31T03:55:55.176Z,18.63
2017-03-31T03:56:53.767Z,18.27
2017-03-31T03:57:52.724Z,20.15
2017-03-31T03:58:51.748Z,19.15
2017-03-31T03:59:50.763Z,18.10
2017-03-31T04:00:49.352Z,16.97
2017-03-31T04:01:48.307Z,19.37
2017-03-31T04:02:47.295Z,19.50
2017-03-31T04:03:46.266Z,18.60
2017-03-31T04:04:44.907Z,19.68
2017-03-31T04:05:43.920Z,20.63
2017-03-31T04:06:42.931Z,19.05
2017-03-31T04:07:42.287Z,18.45
2017-03-31T04:08:41.272Z,18.55
2017-03-31T04:09:40.277Z,19.07
2017-03-31T04:10:38.852Z,18.05
2017-03-31T04:11:37.932Z,18.08
2017-03-31T04:12:37.014Z,18.55
2017-03-31T04:13:35.612Z,19.65
2017-03-31T04:14:34.907Z,18.95
2017-03-31T04:15:33.928Z,15.95
2017-03-31T04:16:32.899Z,18.60
2017-03-31T04:17:31.975Z,18.08
2017-03-31T04:18:30.994Z,17.57
2017-03-31T04:19:29.975Z,19.13
2017-03-31T04:20:28.950Z,18.75
2017-03-31T04:21:27.918Z,17.02
2017-03-31T04:22:27.024Z,17.27
2017-03-31T04:23:26.095Z,18.93
2017-03-31T04:24:25.045Z,17.00
2017-03-31T04:25:24.062Z,18.95
2017-03-31T04:26:23.060Z,17.27
2017-03-31T04:27:22.127Z,17.68
2017-03-31T04:28:21.139Z,17.27
2017-03-31T04:29:20.196Z,18.87
2017-03-31T04:30:19.207Z,18.50
2017-03-31T04:31:18.187Z,18.27
2017-03-31T04:32:17.199Z,17.97
2017-03-31T04:33:16.544Z,18.18
2017-03-31T04:34:15.164Z,17.42
2017-03-31T04:35:14.187Z,16.73
2017-03-31T04:36:13.192Z,19.40
2017-03-31T04:37:12.572Z,17.15
2017-03-31T04:38:11.570Z,17.98
2017-03-31T04:39:10.531Z,17.95
2017-03-31T04:40:09.887Z,18.77
2017-03-31T04:41:09.237Z,17.58
2017-03-31T04:42:08.238Z,18.42
2017-03-31T04:43:07.236Z,19.77
2017-03-31T04:44:06.555Z,18.02
2017-03-31T04:45:05.552Z,18.38
2017-03-31T04:46:04.560Z,19.52
2017-03-31T04:47:03.563Z,19.23
2017-03-31T04:48:02.560Z,17.77
2017-03-31T04:49:01.536Z,19.47
2017-03-31T04:50:00.528Z,18.03
2017-03-31T04:50:59.093Z,17.63
2017-03-31T04:51:58.076Z,17.82
2017-03-31T04:52:56.662Z,17.40
2017-03-31T04:53:55.663Z,17.85
2017-03-31T04:54:54.324Z,18.92
2017-03-31T04:55:53.348Z,19.40
2017-03-31T04:56:52.328Z,17.53
2017-03-31T04:57:51.271Z,17.60
2017-03-31T04:58:50.296Z,18.42
2017-03-31T04:59:49.793Z,18.58
2017-03-31T05:00:48.452Z,18.68
2017-03-31T05:01:47.119Z,18.33
2017-03-31T05:02:46.127Z,18.42
2017-03-31T05:03:45.079Z,17.72
2017-03-31T05:04:44.109Z,18.35
2017-03-31T05:05:43.014Z,17.40
2017-03-31T05:06:41.656Z,18.10
2017-03-31T05:07:40.708Z,18.47
2017-03-31T05:08:40.039Z,17.12
2017-03-31T05:09:39.011Z,17.37
2017-03-31T05:10:37.989Z,16.25
2017-03-31T05:11:37.007Z,18.67
2017-03-31T05:12:35.952Z,16.87
2017-03-31T05:13:34.911Z,17.55
2017-03-31T05:14:33.961Z,16.43
2017-03-31T05:15:32.931Z,16.35
2017-03-31T05:16:31.890Z,16.97
2017-03-31T05:17:30.539Z,16.67
2017-03-31T05:18:29.515Z,16.47
2017-03-31T05:19:28.536Z,17.17
2017-03-31T05:20:27.562Z,16.15
2017-03-31T05:21:26.536Z,16.35
2017-03-31T05:22:25.543Z,18.00
2017-03-31T05:23:24.544Z,16.03
2017-03-31T05:24:23.539Z,18.10
2017-03-31T05:25:22.902Z,16.90
2017-03-31T05:26:21.884Z,17.50
2017-03-31T05:27:20.924Z,18.00
2017-03-31T05:28:19.860Z,16.25
2017-03-31T05:29:18.874Z,20.02
2017-03-31T05:30:17.873Z,21.82
2017-03-31T05:31:16.907Z,20.50
2017-03-31T05:32:15.547Z,23.10
2017-03-31T05:33:14.560Z,22.20
2017-03-31T05:34:13.539Z,19.18
2017-03-31T05:35:12.520Z,17.60
2017-03-31T05:36:11.107Z,16.78
2017-03-31T05:37:10.099Z,16.57
2017-03-31T05:38:09.035Z,16.82
2017-03-31T05:39:08.047Z,17.37
2017-03-31T05:40:07.039Z,17.23
2017-03-31T05:41:06.047Z,17.18
2017-03-31T05:42:05.063Z,16.17
2017-03-31T05:43:03.699Z,17.22
2017-03-31T05:44:02.296Z,17.03
2017-03-31T05:45:01.308Z,16.32
2017-03-31T05:46:00.264Z,17.28
2017-03-31T05:46:59.403Z,15.75
2017-03-31T05:47:58.487Z,16.52
2017-03-31T05:48:57.496Z,17.32
2017-03-31T05:49:56.119Z,17.50
2017-03-31T05:50:54.637Z,16.03
2017-03-31T05:51:53.687Z,17.53
2017-03-31T05:52:52.687Z,16.95
2017-03-31T05:53:51.632Z,18.00
2017-03-31T05:54:50.255Z,15.40
2017-03-31T05:55:49.227Z,16.95
2017-03-31T05:56:48.247Z,16.40
2017-03-31T05:57:47.606Z,17.27
2017-03-31T05:58:46.574Z,15.97
2017-03-31T05:59:45.536Z,16.88
2017-03-31T06:00:44.275Z,15.53
2017-03-31T06:01:43.210Z,15.65
2017-03-31T06:02:42.223Z,15.38
2017-03-31T06:03:41.160Z,17.32
2017-03-31T06:04:40.192Z,15.95
2017-03-31T06:05:39.140Z,16.27
2017-03-31T06:06:38.197Z,16.65
2017-03-31T06:07:37.236Z,16.57
2017-03-31T06:08:36.220Z,17.47
2017-03-31T06:09:34.867Z,17.40
2017-03-31T06:10:33.878Z,17.10
2017-03-31T06:11:32.838Z,16.83
2017-03-31T06:12:31.854Z,15.62
2017-03-31T06:13:30.466Z,16.77
2017-03-31T06:14:29.440Z,17.22
2017-03-31T06:15:28.433Z,17.02
2017-03-31T06:16:27.487Z,15.95
2017-03-31T06:17:26.499Z,17.65
2017-03-31T06:18:25.599Z,16.65
2017-03-31T06:19:24.629Z,18.60
2017-03-31T06:20:23.645Z,17.42
2017-03-31T06:21:22.705Z,16.53
2017-03-31T06:22:21.851Z,16.45
2017-03-31T06:23:20.817Z,16.82
2017-03-31T06:24:19.830Z,16.72
2017-03-31T06:25:18.858Z,16.92
2017-03-31T06:26:17.872Z,17.47
2017-03-31T06:27:16.455Z,17.15
2017-03-31T06:28:15.479Z,15.55
2017-03-31T06:29:14.113Z,16.40
2017-03-31T06:30:13.160Z,16.03
2017-03-31T06:31:12.164Z,17.22
2017-03-31T06:32:11.163Z,17.58
2017-03-31T06:33:10.155Z,17.22
2017-03-31T06:34:09.522Z,16.07
2017-03-31T06:35:08.551Z,15.83
2017-03-31T06:36:07.593Z,17.37
2017-03-31T06:37:06.667Z,17.92
2017-03-31T06:38:05.647Z,17.72
2017-03-31T06:39:04.797Z,16.42
2017-03-31T06:40:03.837Z,18.20
2017-03-31T06:41:02.868Z,17.33
2017-03-31T06:42:01.908Z,17.60
2017-03-31T06:43:00.875Z,17.72
2017-03-31T06:43:59.891Z,16.20
2017-03-31T06:44:58.887Z,16.82
2017-03-31T06:45:57.897Z,17.40
2017-03-31T06:46:56.921Z,17.90
2017-03-31T06:47:55.936Z,17.15
2017-03-31T06:48:54.948Z,18.50
2017-03-31T06:49:54.000Z,18.33
2017-03-31T06:50:52.603Z,17.95
2017-03-31T06:51:51.604Z,19.22
2017-03-31T06:52:50.603Z,19.67
2017-03-31T06:53:49.228Z,19.48
2017-03-31T06:54:47.782Z,18.80
2017-03-31T06:55:46.795Z,18.87
2017-03-31T06:56:45.767Z,18.63
2017-03-31T06:57:44.811Z,19.42
2017-03-31T06:58:43.808Z,17.95
2017-03-31T06:59:42.460Z,19.38
2017-03-31T07:00:41.088Z,19.15
2017-03-31T07:01:40.107Z,17.40
2017-03-31T07:02:39.163Z,17.40
2017-03-31T07:03:38.156Z,17.65
2017-03-31T07:04:37.121Z,17.80
2017-03-31T07:05:36.187Z,16.85
2017-03-31T07:06:35.181Z,16.58
2017-03-31T07:07:34.882Z,17.57
2017-03-31T07:08:33.520Z,17.42
2017-03-31T07:09:32.487Z,17.53
2017-03-31T07:10:31.547Z,18.60
2017-03-31T07:11:30.527Z,18.15
2017-03-31T07:12:29.569Z,18.18
2017-03-31T07:13:28.679Z,17.88
2017-03-31T07:14:27.692Z,18.82
2017-03-31T07:15:26.787Z,18.28
2017-03-31T07:16:25.792Z,18.50
2017-03-31T07:17:24.827Z,19.15
2017-03-31T07:18:23.858Z,17.80
2017-03-31T07:19:22.975Z,18.00
2017-03-31T07:20:21.999Z,18.15
2017-03-31T07:21:21.004Z,17.62
2017-03-31T07:22:20.141Z,17.88
2017-03-31T07:23:19.117Z,17.28
2017-03-31T07:24:18.211Z,17.65
2017-03-31T07:25:16.832Z,18.50
2017-03-31T07:26:15.477Z,18.10
2017-03-31T07:27:14.499Z,17.58
2017-03-31T07:28:13.127Z,18.82
2017-03-31T07:29:12.120Z,18.28
2017-03-31T07:30:10.719Z,18.27
2017-03-31T07:31:09.324Z,19.73
2017-03-31T07:32:08.371Z,16.90
2017-03-31T07:33:07.403Z,19.15
2017-03-31T07:34:06.455Z,18.13
2017-03-31T07:35:05.548Z,18.65
2017-03-31T07:36:04.177Z,18.33
2017-03-31T07:37:03.252Z,19.03
2017-03-31T07:38:02.375Z,18.23
2017-03-31T07:39:01.452Z,18.92
2017-03-31T07:40:00.470Z,18.22
2017-03-31T07:40:59.507Z,19.27
2017-03-31T07:41:58.470Z,17.78
2017-03-31T07:42:57.464Z,18.62
2017-03-31T07:43:56.592Z,19.18
2017-03-31T07:44:55.660Z,18.00
2017-03-31T07:45:54.671Z,18.70
2017-03-31T07:46:53.724Z,17.60
2017-03-31T07:47:52.703Z,18.27
2017-03-31T07:48:51.650Z,18.67
2017-03-31T07:49:50.651Z,18.53
2017-03-31T07:50:49.619Z,19.63
2017-03-31T07:51:48.622Z,18.68
2017-03-31T07:52:47.305Z,18.55
2017-03-31T07:53:45.903Z,17.98
2017-03-31T07:54:44.885Z,17.07
2017-03-31T07:55:43.904Z,18.43
2017-03-31T07:56:42.852Z,17.03
2017-03-31T07:57:41.907Z,18.63
2017-03-31T07:58:40.916Z,17.90
2017-03-31T07:59:39.934Z,18.50
2017-03-31T08:00:38.943Z,18.33
2017-03-31T08:01:37.907Z,18.20
2017-03-31T08:02:36.957Z,18.97
2017-03-31T08:03:35.990Z,18.20
2017-03-31T08:04:35.036Z,18.65
2017-03-31T08:05:33.659Z,18.55
2017-03-31T08:06:32.848Z,17.28
2017-03-31T08:07:31.863Z,19.80
2017-03-31T08:08:30.859Z,18.78
2017-03-31T08:09:29.500Z,19.10
2017-03-31T08:10:29.295Z,17.92
2017-03-31T08:11:27.911Z,17.98
2017-03-31T08:12:26.869Z,20.00
2017-03-31T08:13:25.980Z,20.32
2017-03-31T08:14:24.988Z,17.37
2017-03-31T08:15:24.347Z,18.75
2017-03-31T08:16:23.387Z,18.68
2017-03-31T08:17:22.387Z,20.22
2017-03-31T08:18:21.431Z,18.30
2017-03-31T08:19:21.157Z,18.73
2017-03-31T08:20:20.215Z,19.52
2017-03-31T08:21:19.180Z,18.58
2017-03-31T08:22:18.228Z,19.37
2017-03-31T08:23:17.232Z,17.75
2017-03-31T08:24:16.283Z,16.82
2017-03-31T08:25:14.903Z,17.93
2017-03-31T08:26:13.991Z,17.97
2017-03-31T08:27:12.995Z,17.83
2017-03-31T08:28:12.027Z,19.05
2017-03-31T08:29:11.020Z,17.97
2017-03-31T08:30:09.662Z,18.30
2017-03-31T08:31:08.635Z,17.13
2017-03-31T08:32:07.663Z,15.80
2017-03-31T08:33:06.663Z,18.52
2017-03-31T08:34:05.731Z,17.40
2017-03-31T08:35:04.528Z,16.18
2017-03-31T08:36:03.528Z,16.10
2017-03-31T08:37:02.568Z,15.78
2017-03-31T08:38:01.565Z,17.03
2017-03-31T08:39:00.543Z,15.60
2017-03-31T08:39:59.571Z,17.80
2017-03-31T08:40:58.895Z,17.07
2017-03-31T08:41:57.888Z,15.28
2017-03-31T08:42:56.944Z,17.55
2017-03-31T08:43:55.555Z,16.98
2017-03-31T08:44:54.547Z,15.60
2017-03-31T08:45:53.506Z,18.78
2017-03-31T08:46:52.507Z,17.57
2017-03-31T08:47:51.527Z,16.65
2017-03-31T08:48:50.495Z,16.67
2017-03-31T08:49:49.150Z,15.98
2017-03-31T08:50:48.168Z,17.13
2017-03-31T08:51:47.153Z,16.90
2017-03-31T08:52:46.163Z,16.23
2017-03-31T08:53:45.156Z,16.93
2017-03-31T08:54:44.135Z,17.47
2017-03-31T08:55:43.124Z,17.20
2017-03-31T08:56:42.132Z,17.63
2017-03-31T08:57:41.180Z,17.73
2017-03-31T08:58:40.126Z,17.30
2017-03-31T08:59:38.812Z,16.10
2017-03-31T09:00:37.811Z,16.15
2017-03-31T09:01:36.419Z,16.70
2017-03-31T09:02:35.407Z,16.38
2017-03-31T09:03:34.036Z,16.92
2017-03-31T09:04:32.707Z,15.38
2017-03-31T09:05:31.415Z,15.92
2017-03-31T09:06:30.382Z,16.37
2017-03-31T09:07:29.411Z,17.30
2017-03-31T09:08:28.431Z,16.88
2017-03-31T09:09:27.439Z,16.12
2017-03-31T09:10:26.836Z,16.57
2017-03-31T09:11:25.803Z,15.85
2017-03-31T09:12:24.787Z,17.18
2017-03-31T09:13:23.794Z,17.07
2017-03-31T09:14:22.812Z,16.68
2017-03-31T09:15:21.499Z,15.65
2017-03-31T09:16:20.534Z,16.60
2017-03-31T09:17:19.566Z,15.40
2017-03-31T09:18:18.987Z,17.00
2017-03-31T09:19:17.981Z,15.17
2017-03-31T09:20:17.628Z,16.43
2017-03-31T09:21:17.380Z,16.07
2017-03-31T09:22:16.351Z,15.65
2017-03-31T09:23:15.307Z,15.30
2017-03-31T09:24:14.295Z,14.60
2017-03-31T09:25:13.290Z,16.05
2017-03-31T09:26:12.235Z,16.62
2017-03-31T09:27:11.235Z,15.00
2017-03-31T09:28:10.240Z,15.37
2017-03-31T09:29:09.244Z,15.05
2017-03-31T09:30:08.233Z,16.17
2017-03-31T09:31:07.203Z,14.83
2017-03-31T09:32:06.252Z,13.37
2017-03-31T09:33:05.222Z,14.47
2017-03-31T09:34:04.352Z,13.83
2017-03-31T09:35:03.366Z,15.42
2017-03-31T09:36:02.353Z,15.45
2017-03-31T09:37:01.752Z,15.65
2017-03-31T09:38:00.320Z,15.08
2017-03-31T09:38:59.753Z,14.70
2017-03-31T09:39:58.795Z,15.37
2017-03-31T09:40:57.851Z,15.08
2017-03-31T09:41:56.867Z,15.40
2017-03-31T09:42:56.242Z,15.65
2017-03-31T09:43:55.203Z,14.73
2017-03-31T09:44:54.158Z,15.95
2017-03-31T09:45:53.165Z,15.98
2017-03-31T09:46:52.596Z,14.35
2017-03-31T09:47:51.932Z,16.70
2017-03-31T09:48:51.015Z,14.57
2017-03-31T09:49:50.002Z,15.63
2017-03-31T09:50:49.004Z,15.12
2017-03-31T09:51:48.017Z,14.32
2017-03-31T09:52:47.071Z,13.75
2017-03-31T09:53:45.676Z,14.48
2017-03-31T09:54:44.662Z,13.13
2017-03-31T09:55:43.274Z,13.85
2017-03-31T09:56:42.308Z,14.12
2017-03-31T09:57:41.324Z,14.08
2017-03-31T09:58:40.321Z,14.32
2017-03-31T09:59:39.280Z,14.45
2017-03-31T10:00:38.641Z,15.37
2017-03-31T10:01:37.680Z,14.30
2017-03-31T10:02:36.701Z,14.60
2017-03-31T10:03:35.732Z,14.42
2017-03-31T10:04:35.036Z,13.85
2017-03-31T10:05:34.075Z,12.85
2017-03-31T10:06:33.003Z,13.57
2017-03-31T10:07:32.062Z,13.02
2017-03-31T10:08:31.076Z,13.35
2017-03-31T10:09:29.727Z,12.92
2017-03-31T10:10:28.808Z,14.18
2017-03-31T10:11:27.915Z,14.45
2017-03-31T10:12:26.918Z,14.78
2017-03-31T10:13:25.871Z,13.33
2017-03-31T10:14:25.707Z,13.60
2017-03-31T10:15:24.329Z,12.75
2017-03-31T10:16:23.447Z,13.72
2017-03-31T10:17:22.512Z,13.38
2017-03-31T10:18:21.559Z,14.10
2017-03-31T10:19:20.555Z,13.40
2017-03-31T10:20:20.048Z,12.93
2017-03-31T10:21:19.105Z,12.43
2017-03-31T10:22:18.142Z,11.22
2017-03-31T10:23:17.225Z,13.68
2017-03-31T10:24:16.182Z,11.90
2017-03-31T10:25:14.771Z,14.02
2017-03-31T10:26:14.519Z,10.45
2017-03-31T10:27:13.575Z,9.65
2017-03-31T10:28:12.588Z,10.17
2017-03-31T10:29:11.683Z,10.00
2017-03-31T10:30:10.738Z,11.45
2017-03-31T10:31:09.719Z,9.88
2017-03-31T10:32:08.323Z,10.72
2017-03-31T10:33:06.944Z,11.12
2017-03-31T10:34:06.055Z,8.98
2017-03-31T10:35:05.043Z,7.78
2017-03-31T10:36:04.436Z,9.67
2017-03-31T10:37:03.419Z,8.43
2017-03-31T10:38:02.431Z,8.47
2017-03-31T10:39:01.444Z,8.17
2017-03-31T10:40:00.456Z,7.93
2017-03-31T10:40:59.032Z,8.35
2017-03-31T10:41:57.637Z,7.65
2017-03-31T10:42:56.620Z,8.05
2017-03-31T10:43:55.580Z,8.53
2017-03-31T10:44:54.592Z,7.62
2017-03-31T10:45:53.199Z,8.42
2017-03-31T10:46:52.160Z,7.95
2017-03-31T10:47:51.250Z,7.65
2017-03-31T10:48:50.235Z,8.33
2017-03-31T10:49:49.223Z,6.55
2017-03-31T10:50:48.207Z,6.78
2017-03-31T10:51:46.807Z,7.62
2017-03-31T10:52:45.871Z,8.08
2017-03-31T10:53:44.877Z,8.32
2017-03-31T10:54:43.576Z,8.72
2017-03-31T10:55:42.568Z,9.67
2017-03-31T10:56:41.595Z,9.93
2017-03-31T10:57:40.614Z,7.52
2017-03-31T10:58:39.660Z,7.32
2017-03-31T10:59:38.317Z,7.12
2017-03-31T11:00:37.076Z,7.78
2017-03-31T11:01:36.474Z,7.72
2017-03-31T11:02:35.495Z,7.42
2017-03-31T11:03:34.522Z,8.30
2017-03-31T11:04:33.579Z,7.65
2017-03-31T11:05:32.516Z,7.73
2017-03-31T11:06:31.130Z,7.78
2017-03-31T11:07:30.164Z,7.20
2017-03-31T11:08:28.776Z,7.17
2017-03-31T11:09:27.855Z,6.80
2017-03-31T11:10:26.868Z,7.17
2017-03-31T11:11:25.905Z,6.97
2017-03-31T11:12:24.475Z,6.72
2017-03-31T11:13:23.543Z,7.18
2017-03-31T11:14:22.541Z,7.80
2017-03-31T11:15:21.671Z,8.02
2017-03-31T11:16:20.303Z,9.80
2017-03-31T11:17:19.344Z,7.78
2017-03-31T11:18:18.319Z,8.67
2017-03-31T11:19:17.312Z,8.18
2017-03-31T11:20:16.318Z,7.97
2017-03-31T11:21:14.976Z,7.70
2017-03-31T11:22:13.947Z,7.67
2017-03-31T11:23:12.970Z,8.42
2017-03-31T11:24:12.184Z,7.70
2017-03-31T11:25:11.191Z,8.33
2017-03-31T11:26:10.238Z,7.87
2017-03-31T11:27:09.682Z,8.33
2017-03-31T11:28:08.692Z,8.05
2017-03-31T11:29:07.288Z,7.78
2017-03-31T11:30:06.303Z,7.07
2017-03-31T11:31:05.373Z,8.00
2017-03-31T11:32:04.366Z,7.35
2017-03-31T11:33:02.987Z,6.68
2017-03-31T11:34:01.571Z,6.80
2017-03-31T11:35:00.538Z,6.88
2017-03-31T11:35:59.489Z,7.73
2017-03-31T11:36:58.499Z,7.82
2017-03-31T11:37:57.459Z,8.12
2017-03-31T11:38:56.441Z,7.08
2017-03-31T11:39:55.455Z,6.70
2017-03-31T11:40:54.419Z,7.67
2017-03-31T11:41:53.449Z,7.58
2017-03-31T11:42:52.426Z,7.23
2017-03-31T11:43:51.392Z,7.38
2017-03-31T11:44:50.031Z,8.17
2017-03-31T11:45:49.005Z,7.10
2017-03-31T11:46:48.023Z,7.72
2017-03-31T11:47:47.044Z,8.33
2017-03-31T11:48:46.059Z,6.60
2017-03-31T11:49:45.043Z,7.15
2017-03-31T11:50:44.094Z,7.58
2017-03-31T11:51:43.072Z,6.85
2017-03-31T11:52:42.464Z,6.93
2017-03-31T11:53:41.459Z,6.45
2017-03-31T11:54:40.860Z,7.38
2017-03-31T11:55:40.326Z,7.18
2017-03-31T11:56:39.327Z,7.40
2017-03-31T11:57:38.711Z,6.90
2017-03-31T11:58:37.743Z,6.73
2017-03-31T11:59:36.855Z,6.25
2017-03-31T12:00:35.935Z,7.18
2017-03-31T12:01:34.564Z,6.20
2017-03-31T12:02:33.625Z,6.43
2017-03-31T12:03:32.587Z,7.48
2017-03-31T12:04:31.699Z,6.87
2017-03-31T12:05:30.307Z,6.65
2017-03-31T12:06:29.314Z,7.65
2017-03-31T12:07:28.303Z,7.12
2017-03-31T12:08:27.289Z,7.32
2017-03-31T12:09:26.379Z,7.45
2017-03-31T12:10:25.373Z,7.10
2017-03-31T12:11:23.979Z,7.80
2017-03-31T12:12:23.286Z,7.33
2017-03-31T12:13:22.290Z,7.67
2017-03-31T12:14:22.027Z,6.80
2017-03-31T12:15:21.027Z,6.70
2017-03-31T12:16:20.016Z,7.25
2017-03-31T12:17:19.026Z,7.30
2017-03-31T12:18:17.981Z,7.77
2017-03-31T12:19:17.019Z,6.75
2017-03-31T12:20:15.994Z,7.35
2017-03-31T12:21:14.993Z,7.07
2017-03-31T12:22:13.985Z,7.53
2017-03-31T12:23:12.980Z,7.33
2017-03-31T12:24:11.950Z,7.98
2017-03-31T12:25:10.903Z,7.32
2017-03-31T12:26:09.519Z,7.25
2017-03-31T12:27:08.531Z,6.75
2017-03-31T12:28:07.510Z,8.38
2017-03-31T12:29:06.502Z,6.98
2017-03-31T12:30:05.468Z,6.65
2017-03-31T12:31:04.451Z,6.70
2017-03-31T12:32:03.415Z,6.45
2017-03-31T12:33:02.418Z,6.95
2017-03-31T12:34:01.404Z,6.98
2017-03-31T12:35:00.419Z,7.17
2017-03-31T12:35:59.035Z,7.97
2017-03-31T12:36:58.022Z,7.55
2017-03-31T12:37:57.084Z,6.27
2017-03-31T12:38:56.839Z,7.13
2017-03-31T12:39:55.860Z,6.93
2017-03-31T12:40:54.415Z,7.00
2017-03-31T12:41:53.021Z,7.03
2017-03-31T12:42:52.019Z,6.15
2017-03-31T12:43:51.035Z,6.62
2017-03-31T12:44:49.639Z,7.48